PWSweather.com
Personal Weather Stations
Station Observations
GEELONGWX1
Bell Post Hill, GeelongAU

Bell Post HillGeelongAU

Lat: -38.101, Lon: 144.326

Elevation: 204

Station Type: Davis Vantage Pro2

http://www.geelongweather.com

High Low Average
Temperature 95.4°F35.2°C 58.2°F14.6°C 74.9°F23.8°C
Dew Point 66.0°F18.9°C 44.9°F7.2°C 57.8°F14.3°C
Winds 9.1 mph 14.6 kmh Calm Calm 1.0 mph SW1.6 kmh SW
Wind Gusts 16.0 mph25.7 kmh -- 3.0 mph4.8 kmh
Humidity 96% 19% 63%
Pressure 29.62 in1003.0 mb 29.38 in994.9 mb -
Precipitation 0.01 in0.3 mm - -
Hour Temp Dew Point Humidity Winds Wind Gusts Pressure Precip Precip Rate Daily Precip Total
12:00 AM 64.1°F17.8°C 61.4°F16.3°C 91% Calm Calm -- 29.62 in1003.0 mb 0.00 in0.0 mm 0.00 in/hr0.0 mm/hr 0.00 in0.0 mm
12:10 AM 64.1°F17.8°C 61.4°F16.3°C 91% Calm Calm -- 29.62 in1003.0 mb 0.00 in0.0 mm 0.00 in/hr0.0 mm/hr 0.00 in0.0 mm
12:20 AM 64.0°F17.8°C 61.6°F16.4°C 92% Calm Calm -- 29.62 in1003.0 mb 0.00 in0.0 mm 0.00 in/hr0.0 mm/hr 0.00 in0.0 mm
12:30 AM 64.0°F17.8°C 61.0°F16.1°C 90% Calm Calm -- 29.62 in1003.0 mb 0.00 in0.0 mm 0.00 in/hr0.0 mm/hr 0.00 in0.0 mm
12:40 AM 63.8°F17.7°C 60.8°F16.0°C 90% Calm Calm -- 29.61 in1002.7 mb 0.00 in0.0 mm 0.00 in/hr0.0 mm/hr 0.00 in0.0 mm
12:50 AM 63.6°F17.6°C 60.6°F15.9°C 90% Calm Calm -- 29.61 in1002.7 mb 0.00 in0.0 mm 0.00 in/hr0.0 mm/hr 0.00 in0.0 mm
01:00 AM 63.4°F17.4°C 60.4°F15.8°C 90% Calm Calm -- 29.61 in1002.7 mb 0.00 in0.0 mm 0.00 in/hr0.0 mm/hr 0.00 in0.0 mm
01:10 AM 63.2°F17.3°C 60.5°F15.8°C 91% Calm Calm -- 29.60 in1002.4 mb 0.00 in0.0 mm 0.00 in/hr0.0 mm/hr 0.00 in0.0 mm
01:20 AM 62.9°F17.2°C 60.2°F15.7°C 91% Calm Calm -- 29.60 in1002.4 mb 0.00 in0.0 mm 0.00 in/hr0.0 mm/hr 0.00 in0.0 mm
01:30 AM 62.7°F17.1°C 60.0°F15.6°C 91% Calm Calm -- 29.60 in1002.4 mb 0.00 in0.0 mm 0.00 in/hr0.0 mm/hr 0.00 in0.0 mm
01:40 AM 62.3°F16.8°C 59.7°F15.4°C 91% Calm Calm -- 29.60 in1002.4 mb 0.00 in0.0 mm 0.00 in/hr0.0 mm/hr 0.00 in0.0 mm
01:50 AM 62.1°F16.7°C 59.4°F15.2°C 91% Calm Calm -- 29.59 in1002.0 mb 0.00 in0.0 mm 0.00 in/hr0.0 mm/hr 0.00 in0.0 mm
02:00 AM 61.8°F16.6°C 59.1°F15.1°C 91% Calm Calm -- 29.59 in1002.0 mb 0.00 in0.0 mm 0.00 in/hr0.0 mm/hr 0.00 in0.0 mm
02:10 AM 61.4°F16.3°C 58.7°F14.8°C 91% Calm Calm -- 29.59 in1002.0 mb 0.00 in0.0 mm 0.00 in/hr0.0 mm/hr 0.00 in0.0 mm
02:20 AM 61.3°F16.3°C 58.9°F14.9°C 92% Calm Calm -- 29.59 in1002.0 mb 0.00 in0.0 mm 0.00 in/hr0.0 mm/hr 0.00 in0.0 mm
02:30 AM 61.3°F16.3°C 59.0°F15.0°C 92% Calm Calm -- 29.59 in1002.0 mb 0.00 in0.0 mm 0.00 in/hr0.0 mm/hr 0.00 in0.0 mm
02:40 AM 61.0°F16.1°C 58.7°F14.8°C 92% Calm Calm -- 29.59 in1002.0 mb 0.00 in0.0 mm 0.00 in/hr0.0 mm/hr 0.00 in0.0 mm
02:50 AM 60.8°F16.0°C 58.4°F14.7°C 92% Calm Calm -- 29.59 in1002.0 mb 0.00 in0.0 mm 0.00 in/hr0.0 mm/hr 0.00 in0.0 mm
03:00 AM 60.9°F16.1°C 58.9°F14.9°C 93% Calm Calm -- 29.59 in1002.0 mb 0.00 in0.0 mm 0.00 in/hr0.0 mm/hr 0.00 in0.0 mm
03:10 AM 60.8°F16.0°C 58.5°F14.7°C 92% Calm Calm -- 29.58 in1001.7 mb 0.00 in0.0 mm 0.00 in/hr0.0 mm/hr 0.00 in0.0 mm
03:20 AM 60.8°F16.0°C 58.8°F14.9°C 93% Calm Calm -- 29.57 in1001.4 mb 0.00 in0.0 mm 0.00 in/hr0.0 mm/hr 0.00 in0.0 mm
03:30 AM 60.7°F15.9°C 58.4°F14.7°C 92% Calm Calm -- 29.57 in1001.4 mb 0.00 in0.0 mm 0.00 in/hr0.0 mm/hr 0.00 in0.0 mm
03:40 AM 60.6°F15.9°C 58.3°F14.6°C 92% Calm Calm -- 29.57 in1001.4 mb 0.00 in0.0 mm 0.00 in/hr0.0 mm/hr 0.00 in0.0 mm
03:50 AM 60.3°F15.7°C 58.0°F14.4°C 92% Calm Calm -- 29.57 in1001.4 mb 0.00 in0.0 mm 0.00 in/hr0.0 mm/hr 0.00 in0.0 mm
04:00 AM 60.3°F15.7°C 58.2°F14.6°C 93% Calm Calm -- 29.57 in1001.4 mb 0.00 in0.0 mm 0.00 in/hr0.0 mm/hr 0.00 in0.0 mm
04:10 AM 60.0°F15.6°C 57.7°F14.3°C 92% Calm Calm -- 29.56 in1001.0 mb 0.01 in0.3 mm 0.06 in/hr1.5 mm/hr 0.01 in0.3 mm
04:20 AM 59.5°F15.3°C 57.2°F14.0°C 92% Calm Calm -- 29.57 in1001.4 mb 0.00 in0.0 mm 0.00 in/hr0.0 mm/hr 0.01 in0.3 mm
04:30 AM 59.2°F15.1°C 57.2°F14.0°C 93% Calm Calm -- 29.57 in1001.4 mb 0.00 in0.0 mm 0.00 in/hr0.0 mm/hr 0.01 in0.3 mm
04:40 AM 59.0°F15.0°C 57.3°F14.1°C 94% Calm Calm -- 29.57 in1001.4 mb 0.00 in0.0 mm 0.00 in/hr0.0 mm/hr 0.01 in0.3 mm
04:50 AM 59.2°F15.1°C 57.5°F14.2°C 94% Calm Calm -- 29.57 in1001.4 mb 0.00 in0.0 mm 0.00 in/hr0.0 mm/hr 0.01 in0.3 mm
05:00 AM 59.1°F15.1°C 57.4°F14.1°C 94% Calm Calm -- 29.57 in1001.4 mb 0.00 in0.0 mm 0.00 in/hr0.0 mm/hr 0.01 in0.3 mm
05:10 AM 59.0°F15.0°C 57.6°F14.2°C 95% Calm Calm -- 29.57 in1001.4 mb 0.00 in0.0 mm 0.00 in/hr0.0 mm/hr 0.01 in0.3 mm
05:20 AM 59.1°F15.1°C 57.7°F14.3°C 95% Calm Calm -- 29.57 in1001.4 mb 0.00 in0.0 mm 0.00 in/hr0.0 mm/hr 0.01 in0.3 mm
05:30 AM 58.9°F14.9°C 57.5°F14.2°C 95% Calm Calm -- 29.57 in1001.4 mb 0.00 in0.0 mm 0.00 in/hr0.0 mm/hr 0.01 in0.3 mm
05:40 AM 58.7°F14.8°C 57.0°F13.9°C 94% Calm Calm -- 29.57 in1001.4 mb 0.00 in0.0 mm 0.00 in/hr0.0 mm/hr 0.01 in0.3 mm
05:50 AM 58.6°F14.8°C 56.9°F13.8°C 94% Calm Calm -- 29.57 in1001.4 mb 0.00 in0.0 mm 0.00 in/hr0.0 mm/hr 0.01 in0.3 mm
06:00 AM 58.3°F14.6°C 56.6°F13.7°C 94% Calm Calm -- 29.57 in1001.4 mb 0.00 in0.0 mm 0.00 in/hr0.0 mm/hr 0.01 in0.3 mm
06:10 AM 58.2°F14.6°C 56.8°F13.8°C 95% Calm Calm -- 29.57 in1001.4 mb 0.00 in0.0 mm 0.00 in/hr0.0 mm/hr 0.01 in0.3 mm
06:20 AM 58.3°F14.6°C 56.9°F13.8°C 95% Calm Calm -- 29.58 in1001.7 mb 0.00 in0.0 mm 0.00 in/hr0.0 mm/hr 0.01 in0.3 mm
06:30 AM 58.7°F14.8°C 57.6°F14.2°C 96% Calm Calm -- 29.58 in1001.7 mb 0.00 in0.0 mm 0.00 in/hr0.0 mm/hr 0.01 in0.3 mm
06:40 AM 59.9°F15.5°C 58.7°F14.8°C 96% Calm Calm -- 29.58 in1001.7 mb 0.00 in0.0 mm 0.00 in/hr0.0 mm/hr 0.01 in0.3 mm
06:50 AM 61.2°F16.2°C 60.1°F15.6°C 96% Calm Calm -- 29.58 in1001.7 mb 0.00 in0.0 mm 0.00 in/hr0.0 mm/hr 0.01 in0.3 mm
07:00 AM 62.6°F17.0°C 60.5°F15.8°C 93% Calm Calm -- 29.58 in1001.7 mb 0.00 in0.0 mm 0.00 in/hr0.0 mm/hr 0.01 in0.3 mm
07:10 AM 64.1°F17.8°C 61.4°F16.3°C 91% Calm Calm -- 29.59 in1002.0 mb 0.00 in0.0 mm 0.00 in/hr0.0 mm/hr 0.01 in0.3 mm
07:20 AM 65.8°F18.8°C 62.1°F16.7°C 88% Calm Calm -- 29.59 in1002.0 mb 0.00 in0.0 mm 0.00 in/hr0.0 mm/hr 0.01 in0.3 mm
07:30 AM 67.1°F19.5°C 62.5°F16.9°C 85% Calm Calm -- 29.59 in1002.0 mb 0.00 in0.0 mm 0.00 in/hr0.0 mm/hr 0.01 in0.3 mm
07:40 AM 68.5°F20.3°C 62.8°F17.1°C 82% Calm Calm -- 29.59 in1002.0 mb 0.00 in0.0 mm 0.00 in/hr0.0 mm/hr 0.01 in0.3 mm
07:50 AM 69.4°F20.8°C 62.6°F17.0°C 79% Calm Calm -- 29.58 in1001.7 mb 0.00 in0.0 mm 0.00 in/hr0.0 mm/hr 0.01 in0.3 mm
08:00 AM 70.4°F21.3°C 63.2°F17.3°C 78% Calm Calm -- 29.58 in1001.7 mb 0.00 in0.0 mm 0.00 in/hr0.0 mm/hr 0.01 in0.3 mm
08:10 AM 71.2°F21.8°C 63.6°F17.6°C 77% Calm Calm -- 29.58 in1001.7 mb 0.00 in0.0 mm 0.00 in/hr0.0 mm/hr 0.01 in0.3 mm
08:20 AM 72.1°F22.3°C 63.7°F17.6°C 75% 4.3 mph E6.9 kmh E 7.0 mph11.3 kmh 29.57 in1001.4 mb 0.00 in0.0 mm 0.00 in/hr0.0 mm/hr 0.01 in0.3 mm
08:30 AM 72.4°F22.4°C 64.0°F17.8°C 75% 3.5 mph NE5.6 kmh NE 5.0 mph8.0 kmh 29.57 in1001.4 mb 0.00 in0.0 mm 0.00 in/hr0.0 mm/hr 0.01 in0.3 mm
08:40 AM 73.0°F22.8°C 64.6°F18.1°C 75% 0.4 mph E0.6 kmh E 4.0 mph6.4 kmh 29.57 in1001.4 mb 0.00 in0.0 mm 0.00 in/hr0.0 mm/hr 0.01 in0.3 mm
08:50 AM 73.6°F23.1°C 64.0°F17.8°C 72% 2.5 mph E4.0 kmh E 5.0 mph8.0 kmh 29.57 in1001.4 mb 0.00 in0.0 mm 0.00 in/hr0.0 mm/hr 0.01 in0.3 mm
09:00 AM 74.2°F23.4°C 63.8°F17.7°C 70% 2.4 mph E3.9 kmh E 7.0 mph11.3 kmh 29.57 in1001.4 mb 0.00 in0.0 mm 0.00 in/hr0.0 mm/hr 0.01 in0.3 mm
09:10 AM 75.1°F23.9°C 63.8°F17.7°C 68% 2.4 mph ENE3.9 kmh ENE 6.0 mph9.7 kmh 29.57 in1001.4 mb 0.00 in0.0 mm 0.00 in/hr0.0 mm/hr 0.01 in0.3 mm
09:20 AM 75.5°F24.2°C 63.8°F17.7°C 67% 2.2 mph E3.5 kmh E 4.0 mph6.4 kmh 29.57 in1001.4 mb 0.00 in0.0 mm 0.00 in/hr0.0 mm/hr 0.01 in0.3 mm
09:30 AM 76.0°F24.4°C 64.7°F18.2°C 68% 2.3 mph ESE3.7 kmh ESE 6.0 mph9.7 kmh 29.57 in1001.4 mb 0.00 in0.0 mm 0.00 in/hr0.0 mm/hr 0.01 in0.3 mm
09:40 AM 76.8°F24.9°C 65.0°F18.3°C 67% 3.0 mph ESE4.8 kmh ESE 3.0 mph4.8 kmh 29.56 in1001.0 mb 0.00 in0.0 mm 0.00 in/hr0.0 mm/hr 0.01 in0.3 mm
09:50 AM 77.6°F25.3°C 64.5°F18.1°C 64% 1.6 mph E2.6 kmh E 6.0 mph9.7 kmh 29.55 in1000.7 mb 0.00 in0.0 mm 0.00 in/hr0.0 mm/hr 0.01 in0.3 mm
10:00 AM 77.9°F25.5°C 65.2°F18.4°C 65% 2.1 mph ESE3.4 kmh ESE 5.0 mph8.0 kmh 29.55 in1000.7 mb 0.00 in0.0 mm 0.00 in/hr0.0 mm/hr 0.01 in0.3 mm
10:10 AM 79.2°F26.2°C 66.0°F18.9°C 64% 5.4 mph SE8.7 kmh SE 10.0 mph16.1 kmh 29.54 in1000.3 mb 0.00 in0.0 mm 0.00 in/hr0.0 mm/hr 0.01 in0.3 mm
10:20 AM 79.6°F26.4°C 65.9°F18.8°C 63% 4.9 mph ESE7.9 kmh ESE 9.0 mph14.5 kmh 29.54 in1000.3 mb 0.00 in0.0 mm 0.00 in/hr0.0 mm/hr 0.01 in0.3 mm
10:30 AM 80.0°F26.7°C 65.8°F18.8°C 62% 5.4 mph ESE8.7 kmh ESE 11.0 mph17.7 kmh 29.54 in1000.3 mb 0.00 in0.0 mm 0.00 in/hr0.0 mm/hr 0.01 in0.3 mm
10:40 AM 79.6°F26.4°C 65.4°F18.6°C 62% Calm Calm -- 29.54 in1000.3 mb 0.00 in0.0 mm 0.00 in/hr0.0 mm/hr 0.01 in0.3 mm
10:50 AM 79.7°F26.5°C 65.0°F18.3°C 61% 4.3 mph E6.9 kmh E 10.0 mph16.1 kmh 29.53 in1000.0 mb 0.00 in0.0 mm 0.00 in/hr0.0 mm/hr 0.01 in0.3 mm
11:00 AM 79.3°F26.3°C 65.6°F18.7°C 63% 3.2 mph SE5.1 kmh SE 8.0 mph12.9 kmh 29.53 in1000.0 mb 0.00 in0.0 mm 0.00 in/hr0.0 mm/hr 0.01 in0.3 mm
11:10 AM 79.3°F26.3°C 65.2°F18.4°C 62% 3.3 mph SE5.3 kmh SE 8.0 mph12.9 kmh 29.53 in1000.0 mb 0.00 in0.0 mm 0.00 in/hr0.0 mm/hr 0.01 in0.3 mm
11:20 AM 79.7°F26.5°C 64.6°F18.1°C 60% 2.8 mph ESE4.5 kmh ESE 7.0 mph11.3 kmh 29.53 in1000.0 mb 0.00 in0.0 mm 0.00 in/hr0.0 mm/hr 0.01 in0.3 mm
11:30 AM 78.8°F26.0°C 64.2°F17.9°C 61% 1.7 mph ESE2.7 kmh ESE 6.0 mph9.7 kmh 29.53 in1000.0 mb 0.00 in0.0 mm 0.00 in/hr0.0 mm/hr 0.01 in0.3 mm
11:40 AM 79.9°F26.6°C 64.7°F18.2°C 60% 4.1 mph SE6.6 kmh SE 6.0 mph9.7 kmh 29.52 in999.7 mb 0.00 in0.0 mm 0.00 in/hr0.0 mm/hr 0.01 in0.3 mm
11:50 AM 80.4°F26.9°C 65.3°F18.5°C 60% Calm Calm -- 29.52 in999.7 mb 0.00 in0.0 mm 0.00 in/hr0.0 mm/hr 0.01 in0.3 mm
12:00 PM 80.7°F27.1°C 64.5°F18.1°C 58% 1.7 mph SE2.7 kmh SE 5.0 mph8.0 kmh 29.52 in999.7 mb 0.00 in0.0 mm 0.00 in/hr0.0 mm/hr 0.01 in0.3 mm
12:10 PM 80.9°F27.2°C 63.8°F17.7°C 56% Calm Calm -- 29.51 in999.3 mb 0.00 in0.0 mm 0.00 in/hr0.0 mm/hr 0.01 in0.3 mm
12:20 PM 83.5°F28.6°C 64.0°F17.8°C 52% Calm Calm -- 29.50 in999.0 mb 0.00 in0.0 mm 0.00 in/hr0.0 mm/hr 0.01 in0.3 mm
12:30 PM 84.5°F29.2°C 63.8°F17.7°C 50% 1.5 mph E2.4 kmh E 5.0 mph8.0 kmh 29.50 in999.0 mb 0.00 in0.0 mm 0.00 in/hr0.0 mm/hr 0.01 in0.3 mm
12:40 PM 86.8°F30.4°C 62.3°F16.8°C 44% 2.9 mph NE4.7 kmh NE 7.0 mph11.3 kmh 29.49 in998.6 mb 0.00 in0.0 mm 0.00 in/hr0.0 mm/hr 0.01 in0.3 mm
12:50 PM 89.5°F31.9°C 50.1°F10.1°C 26% 2.6 mph N4.2 kmh N 10.0 mph16.1 kmh 29.49 in998.6 mb 0.00 in0.0 mm 0.00 in/hr0.0 mm/hr 0.01 in0.3 mm
01:00 PM 91.9°F33.3°C 49.9°F9.9°C 24% 0.8 mph N1.3 kmh N 3.0 mph4.8 kmh 29.49 in998.6 mb 0.00 in0.0 mm 0.00 in/hr0.0 mm/hr 0.01 in0.3 mm
01:10 PM 93.8°F34.3°C 49.2°F9.6°C 22% 6.7 mph N10.8 kmh N 10.0 mph16.1 kmh 29.48 in998.3 mb 0.00 in0.0 mm 0.00 in/hr0.0 mm/hr 0.01 in0.3 mm
01:20 PM 93.0°F33.9°C 48.5°F9.2°C 22% 2.2 mph W3.5 kmh W 4.0 mph6.4 kmh 29.47 in998.0 mb 0.00 in0.0 mm 0.00 in/hr0.0 mm/hr 0.01 in0.3 mm
01:30 PM 94.6°F34.8°C 47.3°F8.5°C 20% 0.7 mph N1.1 kmh N -- 29.47 in998.0 mb 0.00 in0.0 mm 0.00 in/hr0.0 mm/hr 0.01 in0.3 mm
01:40 PM 93.4°F34.1°C 46.3°F7.9°C 20% 1.1 mph N1.8 kmh N 4.0 mph6.4 kmh 29.47 in998.0 mb 0.00 in0.0 mm 0.00 in/hr0.0 mm/hr 0.01 in0.3 mm
01:50 PM 93.1°F33.9°C 47.4°F8.6°C 21% 5.5 mph NNW8.9 kmh NNW 10.0 mph16.1 kmh 29.46 in997.6 mb 0.00 in0.0 mm 0.00 in/hr0.0 mm/hr 0.01 in0.3 mm
02:00 PM 93.0°F33.9°C 48.5°F9.2°C 22% 2.6 mph NW4.2 kmh NW 7.0 mph11.3 kmh 29.46 in997.6 mb 0.00 in0.0 mm 0.00 in/hr0.0 mm/hr 0.01 in0.3 mm
02:10 PM 94.4°F34.7°C 47.1°F8.4°C 20% 3.4 mph WNW5.5 kmh WNW 8.0 mph12.9 kmh 29.46 in997.6 mb 0.00 in0.0 mm 0.00 in/hr0.0 mm/hr 0.01 in0.3 mm
02:20 PM 95.4°F35.2°C 46.6°F8.1°C 19% 9.1 mph N14.6 kmh N 16.0 mph25.7 kmh 29.45 in997.3 mb 0.00 in0.0 mm 0.00 in/hr0.0 mm/hr 0.01 in0.3 mm
02:30 PM 94.7°F34.8°C 47.4°F8.6°C 20% 3.6 mph W5.8 kmh W 13.0 mph20.9 kmh 29.45 in997.3 mb 0.00 in0.0 mm 0.00 in/hr0.0 mm/hr 0.01 in0.3 mm
02:40 PM 92.6°F33.7°C 46.9°F8.3°C 21% 1.0 mph NNW1.6 kmh NNW 6.0 mph9.7 kmh 29.45 in997.3 mb 0.00 in0.0 mm 0.00 in/hr0.0 mm/hr 0.01 in0.3 mm
02:50 PM 92.6°F33.7°C 47.0°F8.3°C 21% 2.3 mph NW3.7 kmh NW 12.0 mph19.3 kmh 29.44 in997.0 mb 0.00 in0.0 mm 0.00 in/hr0.0 mm/hr 0.01 in0.3 mm
03:00 PM 93.0°F33.9°C 47.3°F8.5°C 21% 1.8 mph NW2.9 kmh NW 4.0 mph6.4 kmh 29.44 in997.0 mb 0.00 in0.0 mm 0.00 in/hr0.0 mm/hr 0.01 in0.3 mm
03:10 PM 93.9°F34.4°C 48.0°F8.9°C 21% 1.2 mph N1.9 kmh N 10.0 mph16.1 kmh 29.44 in997.0 mb 0.00 in0.0 mm 0.00 in/hr0.0 mm/hr 0.01 in0.3 mm
03:20 PM 93.8°F34.3°C 46.6°F8.1°C 20% 1.4 mph N2.3 kmh N 9.0 mph14.5 kmh 29.43 in996.6 mb 0.00 in0.0 mm 0.00 in/hr0.0 mm/hr 0.01 in0.3 mm
03:30 PM 93.0°F33.9°C 46.0°F7.8°C 20% 1.5 mph WNW2.4 kmh WNW 7.0 mph11.3 kmh 29.43 in996.6 mb 0.00 in0.0 mm 0.00 in/hr0.0 mm/hr 0.01 in0.3 mm
03:40 PM 92.4°F33.6°C 46.8°F8.2°C 21% 4.4 mph N7.1 kmh N 9.0 mph14.5 kmh 29.42 in996.3 mb 0.00 in0.0 mm 0.00 in/hr0.0 mm/hr 0.01 in0.3 mm
03:50 PM 91.8°F33.2°C 46.3°F7.9°C 21% 0.9 mph N1.4 kmh N 4.0 mph6.4 kmh 29.42 in996.3 mb 0.00 in0.0 mm 0.00 in/hr0.0 mm/hr 0.01 in0.3 mm
04:00 PM 91.4°F33.0°C 47.2°F8.4°C 22% 0.2 mph NNW0.3 kmh NNW 2.0 mph3.2 kmh 29.42 in996.3 mb 0.00 in0.0 mm 0.00 in/hr0.0 mm/hr 0.01 in0.3 mm
04:10 PM 91.3°F32.9°C 45.9°F7.7°C 21% 1.1 mph NNW1.8 kmh NNW 6.0 mph9.7 kmh 29.42 in996.3 mb 0.00 in0.0 mm 0.00 in/hr0.0 mm/hr 0.01 in0.3 mm
04:20 PM 91.1°F32.8°C 45.7°F7.6°C 21% Calm Calm 5.0 mph8.0 kmh 29.41 in995.9 mb 0.00 in0.0 mm 0.00 in/hr0.0 mm/hr 0.01 in0.3 mm
04:30 PM 90.8°F32.7°C 45.5°F7.5°C 21% 1.7 mph NNW2.7 kmh NNW 4.0 mph6.4 kmh 29.41 in995.9 mb 0.00 in0.0 mm 0.00 in/hr0.0 mm/hr 0.01 in0.3 mm
04:40 PM 90.5°F32.5°C 46.5°F8.1°C 22% 3.0 mph NNW4.8 kmh NNW 6.0 mph9.7 kmh 29.41 in995.9 mb 0.00 in0.0 mm 0.00 in/hr0.0 mm/hr 0.01 in0.3 mm
04:50 PM 90.4°F32.4°C 46.4°F8.0°C 22% 1.1 mph NW1.8 kmh NW 5.0 mph8.0 kmh 29.40 in995.6 mb 0.00 in0.0 mm 0.00 in/hr0.0 mm/hr 0.01 in0.3 mm
05:00 PM 90.5°F32.5°C 47.6°F8.7°C 23% Calm Calm -- 29.40 in995.6 mb 0.00 in0.0 mm 0.00 in/hr0.0 mm/hr 0.01 in0.3 mm
05:10 PM 91.0°F32.8°C 46.9°F8.3°C 22% 0.2 mph NNW0.3 kmh NNW 2.0 mph3.2 kmh 29.39 in995.3 mb 0.00 in0.0 mm 0.00 in/hr0.0 mm/hr 0.01 in0.3 mm
05:20 PM 91.7°F33.2°C 44.9°F7.2°C 20% 2.4 mph N3.9 kmh N 9.0 mph14.5 kmh 29.39 in995.3 mb 0.00 in0.0 mm 0.00 in/hr0.0 mm/hr 0.01 in0.3 mm
05:30 PM 92.4°F33.6°C 45.5°F7.5°C 20% Calm Calm 2.0 mph3.2 kmh 29.39 in995.3 mb 0.00 in0.0 mm 0.00 in/hr0.0 mm/hr 0.01 in0.3 mm
05:40 PM 92.0°F33.3°C 45.2°F7.3°C 20% 7.5 mph W12.1 kmh W 13.0 mph20.9 kmh 29.39 in995.3 mb 0.00 in0.0 mm 0.00 in/hr0.0 mm/hr 0.01 in0.3 mm
05:50 PM 91.7°F33.2°C 46.2°F7.9°C 21% 0.2 mph NNW0.3 kmh NNW 3.0 mph4.8 kmh 29.39 in995.3 mb 0.00 in0.0 mm 0.00 in/hr0.0 mm/hr 0.01 in0.3 mm
06:00 PM 91.1°F32.8°C 45.7°F7.6°C 21% 1.1 mph WNW1.8 kmh WNW 3.0 mph4.8 kmh 29.39 in995.3 mb 0.00 in0.0 mm 0.00 in/hr0.0 mm/hr 0.01 in0.3 mm
06:10 PM 90.5°F32.5°C 46.5°F8.1°C 22% Calm Calm 3.0 mph4.8 kmh 29.39 in995.3 mb 0.00 in0.0 mm 0.00 in/hr0.0 mm/hr 0.01 in0.3 mm
06:20 PM 90.0°F32.2°C 46.0°F7.8°C 22% Calm Calm -- 29.39 in995.3 mb 0.00 in0.0 mm 0.00 in/hr0.0 mm/hr 0.01 in0.3 mm
06:30 PM 88.2°F31.2°C 60.8°F16.0°C 40% 0.8 mph SSE1.3 kmh SSE 5.0 mph8.0 kmh 29.39 in995.3 mb 0.00 in0.0 mm 0.00 in/hr0.0 mm/hr 0.01 in0.3 mm
06:40 PM 84.1°F28.9°C 61.0°F16.1°C 46% 1.5 mph SSE2.4 kmh SSE 5.0 mph8.0 kmh 29.39 in995.3 mb 0.00 in0.0 mm 0.00 in/hr0.0 mm/hr 0.01 in0.3 mm
06:50 PM 81.5°F27.5°C 60.5°F15.8°C 49% 0.1 mph SSE0.2 kmh SSE 1.0 mph1.6 kmh 29.40 in995.6 mb 0.00 in0.0 mm 0.00 in/hr0.0 mm/hr 0.01 in0.3 mm
07:00 PM 79.9°F26.6°C 60.7°F15.9°C 52% 2.2 mph S3.5 kmh S 5.0 mph8.0 kmh 29.40 in995.6 mb 0.00 in0.0 mm 0.00 in/hr0.0 mm/hr 0.01 in0.3 mm
07:10 PM 78.6°F25.9°C 61.1°F16.2°C 55% 3.2 mph S5.1 kmh S 7.0 mph11.3 kmh 29.40 in995.6 mb 0.00 in0.0 mm 0.00 in/hr0.0 mm/hr 0.01 in0.3 mm
07:20 PM 77.5°F25.3°C 61.1°F16.2°C 57% 0.6 mph N1.0 kmh N 5.0 mph8.0 kmh 29.40 in995.6 mb 0.00 in0.0 mm 0.00 in/hr0.0 mm/hr 0.01 in0.3 mm
07:30 PM 76.7°F24.8°C 60.8°F16.0°C 58% Calm Calm 1.0 mph1.6 kmh 29.40 in995.6 mb 0.00 in0.0 mm 0.00 in/hr0.0 mm/hr 0.01 in0.3 mm
07:40 PM 76.3°F24.6°C 60.9°F16.1°C 59% Calm Calm -- 29.40 in995.6 mb 0.00 in0.0 mm 0.00 in/hr0.0 mm/hr 0.01 in0.3 mm
07:50 PM 75.8°F24.3°C 60.9°F16.1°C 60% 0.9 mph S1.4 kmh S -- 29.40 in995.6 mb 0.00 in0.0 mm 0.00 in/hr0.0 mm/hr 0.01 in0.3 mm
08:00 PM 75.3°F24.1°C 60.9°F16.1°C 61% Calm Calm -- 29.40 in995.6 mb 0.00 in0.0 mm 0.00 in/hr0.0 mm/hr 0.01 in0.3 mm
08:10 PM 74.7°F23.7°C 60.8°F16.0°C 62% Calm Calm -- 29.41 in995.9 mb 0.00 in0.0 mm 0.00 in/hr0.0 mm/hr 0.01 in0.3 mm
08:20 PM 74.3°F23.5°C 60.4°F15.8°C 62% Calm Calm 1.0 mph1.6 kmh 29.40 in995.6 mb 0.00 in0.0 mm 0.00 in/hr0.0 mm/hr 0.01 in0.3 mm
08:30 PM 74.0°F23.3°C 60.6°F15.9°C 63% Calm Calm -- 29.40 in995.6 mb 0.00 in0.0 mm 0.00 in/hr0.0 mm/hr 0.01 in0.3 mm
08:40 PM 73.6°F23.1°C 60.2°F15.7°C 63% Calm Calm -- 29.41 in995.9 mb 0.00 in0.0 mm 0.00 in/hr0.0 mm/hr 0.01 in0.3 mm
08:50 PM 73.1°F22.8°C 60.6°F15.9°C 65% Calm Calm -- 29.41 in995.9 mb 0.00 in0.0 mm 0.00 in/hr0.0 mm/hr 0.01 in0.3 mm
09:00 PM 72.4°F22.4°C 60.4°F15.8°C 66% Calm Calm -- 29.41 in995.9 mb 0.00 in0.0 mm 0.00 in/hr0.0 mm/hr 0.01 in0.3 mm
09:10 PM 71.8°F22.1°C 60.3°F15.7°C 67% Calm Calm -- 29.41 in995.9 mb 0.00 in0.0 mm 0.00 in/hr0.0 mm/hr 0.01 in0.3 mm
09:20 PM 71.4°F21.9°C 60.3°F15.7°C 68% Calm Calm -- 29.41 in995.9 mb 0.00 in0.0 mm 0.00 in/hr0.0 mm/hr 0.01 in0.3 mm
09:30 PM 71.1°F21.7°C 60.4°F15.8°C 69% Calm Calm -- 29.41 in995.9 mb 0.00 in0.0 mm 0.00 in/hr0.0 mm/hr 0.01 in0.3 mm
09:40 PM 70.9°F21.6°C 60.6°F15.9°C 70% Calm Calm -- 29.41 in995.9 mb 0.00 in0.0 mm 0.00 in/hr0.0 mm/hr 0.01 in0.3 mm
09:50 PM 70.8°F21.6°C 60.9°F16.1°C 71% Calm Calm -- 29.41 in995.9 mb 0.00 in0.0 mm 0.00 in/hr0.0 mm/hr 0.01 in0.3 mm
10:00 PM 70.6°F21.4°C 60.7°F15.9°C 71% Calm Calm -- 29.41 in995.9 mb 0.00 in0.0 mm 0.00 in/hr0.0 mm/hr 0.01 in0.3 mm
10:10 PM 70.6°F21.4°C 61.5°F16.4°C 73% Calm Calm -- 29.42 in996.3 mb 0.00 in0.0 mm 0.00 in/hr0.0 mm/hr 0.01 in0.3 mm
10:20 PM 70.8°F21.6°C 60.5°F15.8°C 70% 0.3 mph W0.5 kmh W 3.0 mph4.8 kmh 29.41 in995.9 mb 0.00 in0.0 mm 0.00 in/hr0.0 mm/hr 0.01 in0.3 mm
10:30 PM 71.0°F21.7°C 60.7°F15.9°C 70% Calm Calm -- 29.41 in995.9 mb 0.00 in0.0 mm 0.00 in/hr0.0 mm/hr 0.01 in0.3 mm
10:40 PM 70.9°F21.6°C 61.1°F16.2°C 71% Calm Calm -- 29.41 in995.9 mb 0.00 in0.0 mm 0.00 in/hr0.0 mm/hr 0.01 in0.3 mm
10:50 PM 71.0°F21.7°C 61.1°F16.2°C 71% Calm Calm -- 29.41 in995.9 mb 0.00 in0.0 mm 0.00 in/hr0.0 mm/hr 0.01 in0.3 mm
11:00 PM 71.1°F21.7°C 61.6°F16.4°C 72% Calm Calm -- 29.41 in995.9 mb 0.00 in0.0 mm 0.00 in/hr0.0 mm/hr 0.01 in0.3 mm
11:10 PM 71.2°F21.8°C 61.7°F16.5°C 72% Calm Calm -- 29.40 in995.6 mb 0.00 in0.0 mm 0.00 in/hr0.0 mm/hr 0.01 in0.3 mm
11:20 PM 71.1°F21.7°C 61.6°F16.4°C 72% Calm Calm -- 29.40 in995.6 mb 0.00 in0.0 mm 0.00 in/hr0.0 mm/hr 0.01 in0.3 mm
11:30 PM 71.1°F21.7°C 62.0°F16.7°C 73% Calm Calm -- 29.40 in995.6 mb 0.00 in0.0 mm 0.00 in/hr0.0 mm/hr 0.01 in0.3 mm
11:40 PM 71.1°F21.7°C 63.1°F17.3°C 76% Calm Calm -- 29.39 in995.3 mb 0.00 in0.0 mm 0.00 in/hr0.0 mm/hr 0.01 in0.3 mm
11:50 PM 71.1°F21.7°C 64.3°F17.9°C 79% Calm Calm -- 29.38 in994.9 mb 0.00 in0.0 mm 0.00 in/hr0.0 mm/hr 0.01 in0.3 mm